KLRU/LRU METAR and TAF weather

Enter ICAO airport designator
Station Type Date Time Source
KLRU METAR 2019/08/19 07:35 UTC NOAA

KLRU 190735Z AUTO 27007KT 10SM CLR 25/00 A3004 RMK AO2 T02500000


Station Type Date Time Source
KLRU Decoded METAR 2019/08/19 07:35 UTC NOAA

Station name not available
Aug 19, 2019 - 03:35 AM EDT / 2019.08.19 0735 UTC
Wind: from the W (270 degrees) at 8 MPH (7 KT):0
Visibility: 10 mile(s):0
Sky conditions: clear
Temperature: 77.0 F (25.0 C)
Dew Point: 32.0 F (0.0 C)
Relative Humidity: 19%
Pressure (altimeter): 30.04 in. Hg (1017 hPa)
ob: KLRU 190735Z AUTO 27007KT 10SM CLR 25/00 A3004 RMK AO2 T02500000
cycle: 7

Station Type Date Time Source
KLRU TAF 2019/08/19 06:33 UTC NOAA

TAF KLRU 190530Z 1906/2006 28008KT P6SM SCT140 BKN250
FM191800 17010KT P6SM SCT130 SCT250
FM200200 15008KT P6SM SCT120 BKN250

Example: see airport list